createdAt,value
2019-02-16T00:00:07.335Z,5.78
2019-02-16T00:02:36.040Z,7.20
2019-02-16T00:05:05.350Z,6.77
2019-02-16T00:07:33.744Z,5.70
2019-02-16T00:10:02.161Z,5.60
2019-02-16T00:12:30.559Z,5.53
2019-02-16T00:14:58.968Z,6.08
2019-02-16T00:17:27.388Z,5.70
2019-02-16T00:19:55.807Z,5.62
2019-02-16T00:22:24.220Z,6.42
2019-02-16T00:24:52.633Z,6.05
2019-02-16T00:27:21.055Z,6.40
2019-02-16T00:29:49.449Z,6.07
2019-02-16T00:32:17.843Z,5.70
2019-02-16T00:34:46.246Z,6.30
2019-02-16T00:37:14.680Z,6.10
2019-02-16T00:39:43.083Z,5.72
2019-02-16T00:42:11.573Z,5.28
2019-02-16T00:44:39.968Z,5.40
2019-02-16T00:47:08.378Z,5.35
2019-02-16T00:49:36.759Z,5.55
2019-02-16T00:52:05.183Z,5.70
2019-02-16T00:54:33.611Z,5.55
2019-02-16T00:57:02.004Z,5.87
2019-02-16T00:59:30.433Z,5.83
2019-02-16T01:01:58.899Z,5.90
2019-02-16T01:04:27.298Z,5.70
2019-02-16T01:06:56.639Z,6.50
2019-02-16T01:09:25.049Z,6.10
2019-02-16T01:11:53.772Z,5.55
2019-02-16T01:14:22.176Z,5.40
2019-02-16T01:16:50.595Z,5.95
2019-02-16T01:19:19.024Z,6.03
2019-02-16T01:21:47.416Z,5.47
2019-02-16T01:24:15.807Z,6.47
2019-02-16T01:26:44.217Z,6.00
2019-02-16T01:29:12.610Z,6.58
2019-02-16T01:31:41.028Z,6.35
2019-02-16T01:34:09.453Z,6.00
2019-02-16T01:36:37.852Z,6.70
2019-02-16T01:39:06.971Z,6.92
2019-02-16T01:41:35.375Z,7.10
2019-02-16T01:44:04.710Z,7.55
2019-02-16T01:46:33.151Z,7.00
2019-02-16T01:49:01.544Z,7.05
2019-02-16T01:51:32.039Z,6.75
2019-02-16T01:54:00.102Z,7.30
2019-02-16T01:56:28.492Z,7.30
2019-02-16T01:58:56.900Z,6.90
2019-02-16T02:01:25.374Z,7.00
2019-02-16T02:03:53.782Z,6.92
2019-02-16T02:06:22.180Z,7.25
2019-02-16T02:08:50.660Z,6.40
2019-02-16T02:11:19.104Z,6.60
2019-02-16T02:13:47.535Z,6.93
2019-02-16T02:16:15.918Z,7.28
2019-02-16T02:18:44.324Z,7.70
2019-02-16T02:21:12.723Z,7.08
2019-02-16T02:23:41.132Z,7.22
2019-02-16T02:26:09.519Z,6.45
2019-02-16T02:28:37.936Z,6.90
2019-02-16T02:31:06.320Z,6.42
2019-02-16T02:33:34.969Z,7.45
2019-02-16T02:36:03.360Z,6.80
2019-02-16T02:38:31.775Z,6.97
2019-02-16T02:41:00.177Z,6.50
2019-02-16T02:43:28.588Z,7.30
2019-02-16T02:45:56.982Z,6.42
2019-02-16T02:48:25.374Z,6.97
2019-02-16T02:50:53.789Z,7.25
2019-02-16T02:53:30.648Z,7.42
2019-02-16T02:55:52.420Z,6.60
2019-02-16T02:58:20.819Z,6.60
2019-02-16T03:00:49.224Z,6.80
2019-02-16T03:03:17.620Z,18.90
2019-02-16T03:05:46.020Z,8.35
2019-02-16T03:08:14.435Z,7.50
2019-02-16T03:10:42.844Z,7.17
2019-02-16T03:13:11.279Z,7.15
2019-02-16T03:15:39.698Z,6.80
2019-02-16T03:18:08.114Z,7.97
2019-02-16T03:20:36.823Z,7.53
2019-02-16T03:23:19.325Z,7.62
2019-02-16T03:25:54.145Z,7.35
2019-02-16T03:28:28.608Z,7.05
2019-02-16T03:31:26.017Z,8.10
2019-02-16T03:34:00.500Z,7.30
2019-02-16T03:36:43.876Z,7.20
2019-02-16T03:39:14.574Z,7.05
2019-02-16T03:41:42.980Z,6.80
2019-02-16T03:44:11.395Z,7.00
2019-02-16T03:46:39.783Z,6.60
2019-02-16T03:49:08.191Z,7.30
2019-02-16T03:51:36.587Z,7.40
2019-02-16T03:54:05.028Z,7.67
2019-02-16T03:56:33.395Z,7.20
2019-02-16T03:59:01.809Z,6.97
2019-02-16T04:01:30.202Z,7.60
2019-02-16T04:03:58.613Z,7.17
2019-02-16T04:06:27.031Z,7.40
2019-02-16T04:08:55.443Z,7.47
2019-02-16T04:11:23.840Z,6.85
2019-02-16T04:13:52.231Z,6.62
2019-02-16T04:16:20.631Z,6.87
2019-02-16T04:18:49.376Z,7.03
2019-02-16T04:21:17.781Z,9.60
2019-02-16T04:23:46.201Z,8.80
2019-02-16T04:26:14.627Z,8.50
2019-02-16T04:28:43.013Z,8.20
2019-02-16T04:31:11.428Z,7.60
2019-02-16T04:33:39.823Z,8.40
2019-02-16T04:36:08.243Z,9.20
2019-02-16T04:38:36.657Z,8.65
2019-02-16T04:41:05.056Z,8.15
2019-02-16T04:43:33.455Z,7.15
2019-02-16T04:46:01.863Z,7.40
2019-02-16T04:48:30.255Z,7.10
2019-02-16T04:50:58.745Z,6.80
2019-02-16T04:53:27.166Z,7.33
2019-02-16T04:55:55.562Z,7.60
2019-02-16T04:58:23.996Z,7.20
2019-02-16T05:00:52.439Z,6.67
2019-02-16T05:03:20.835Z,9.20
2019-02-16T05:05:49.295Z,7.60
2019-02-16T05:08:17.700Z,7.55
2019-02-16T05:10:46.110Z,7.45
2019-02-16T05:13:14.520Z,7.20
2019-02-16T05:15:42.935Z,7.40
2019-02-16T05:18:11.334Z,9.20
2019-02-16T05:20:39.747Z,7.85
2019-02-16T05:23:08.145Z,8.60
2019-02-16T05:25:36.559Z,8.30
2019-02-16T05:28:05.014Z,9.95
2019-02-16T05:30:33.447Z,10.63
2019-02-16T05:33:01.859Z,9.98
2019-02-16T05:35:30.257Z,10.05
2019-02-16T05:37:58.669Z,10.23
2019-02-16T05:40:27.085Z,8.90
2019-02-16T05:42:55.479Z,9.70
2019-02-16T05:45:23.877Z,8.90
2019-02-16T05:47:52.301Z,8.58
2019-02-16T05:50:20.719Z,8.70
2019-02-16T05:52:54.392Z,8.63
2019-02-16T05:55:19.301Z,8.53
2019-02-16T05:57:47.735Z,8.60
2019-02-16T06:00:17.783Z,9.03
2019-02-16T06:02:46.191Z,10.15
2019-02-16T06:05:14.717Z,8.53
2019-02-16T06:07:43.125Z,8.25
2019-02-16T06:10:11.503Z,8.65
2019-02-16T06:12:39.927Z,7.87
2019-02-16T06:15:09.161Z,7.10
2019-02-16T06:17:37.591Z,6.95
2019-02-16T06:20:07.940Z,7.40
2019-02-16T06:22:36.381Z,7.30
2019-02-16T06:25:05.923Z,7.65
2019-02-16T06:27:34.317Z,7.10
2019-02-16T06:30:02.729Z,7.17
2019-02-16T06:32:31.150Z,7.00
2019-02-16T06:35:01.176Z,6.40
2019-02-16T06:37:29.593Z,6.90
2019-02-16T06:39:58.001Z,7.20
2019-02-16T06:42:26.414Z,7.40
2019-02-16T06:44:54.812Z,6.93
2019-02-16T06:47:23.255Z,7.67
2019-02-16T06:49:51.657Z,7.30
2019-02-16T06:52:20.075Z,7.45
2019-02-16T06:54:48.480Z,7.53
2019-02-16T06:57:18.563Z,7.83
2019-02-16T06:59:47.028Z,8.15
2019-02-16T07:02:15.422Z,7.97
2019-02-16T07:04:43.838Z,7.42
2019-02-16T07:07:12.237Z,7.80
2019-02-16T07:09:40.661Z,7.20
2019-02-16T07:12:09.087Z,7.40
2019-02-16T07:14:37.504Z,7.60
2019-02-16T07:17:10.204Z,7.53
2019-02-16T07:19:40.285Z,7.37
2019-02-16T07:22:08.708Z,7.60
2019-02-16T07:24:37.136Z,7.55
2019-02-16T07:27:05.552Z,8.20
2019-02-16T07:29:33.971Z,7.30
2019-02-16T07:32:02.371Z,6.87
2019-02-16T07:34:31.050Z,7.50
2019-02-16T07:36:59.519Z,6.90
2019-02-16T07:39:27.963Z,8.10
2019-02-16T07:41:57.363Z,8.30
2019-02-16T07:44:27.499Z,7.65
2019-02-16T07:46:57.567Z,7.00
2019-02-16T07:49:27.663Z,8.18
2019-02-16T07:52:00.565Z,7.83
2019-02-16T07:54:33.638Z,7.45
2019-02-16T07:57:03.672Z,8.05
2019-02-16T07:59:33.739Z,8.58
2019-02-16T08:02:03.781Z,7.60
2019-02-16T08:04:33.830Z,8.10
2019-02-16T08:07:06.680Z,7.93
2019-02-16T08:09:42.630Z,8.48
2019-02-16T08:12:15.631Z,8.20
2019-02-16T08:14:48.624Z,8.88
2019-02-16T08:17:18.703Z,8.43
2019-02-16T08:19:54.965Z,7.80
2019-02-16T08:22:41.746Z,8.65
2019-02-16T08:25:11.792Z,7.55
2019-02-16T08:27:41.836Z,7.80
2019-02-16T08:30:14.692Z,8.40
2019-02-16T08:32:56.956Z,8.60
2019-02-16T08:35:38.978Z,8.28
2019-02-16T08:38:11.984Z,8.10
2019-02-16T08:40:50.780Z,8.50
2019-02-16T08:43:23.573Z,8.80
2019-02-16T08:45:53.622Z,8.85
2019-02-16T08:48:35.641Z,8.45
2019-02-16T08:51:17.496Z,8.30
2019-02-16T08:53:49.875Z,8.13
2019-02-16T08:56:19.327Z,8.65
2019-02-16T08:58:52.283Z,8.80
2019-02-16T09:01:25.295Z,9.70
2019-02-16T09:04:01.331Z,8.90
2019-02-16T09:06:46.456Z,9.40
2019-02-16T09:09:35.049Z,9.30
2019-02-16T09:12:05.998Z,9.35
2019-02-16T09:14:36.232Z,9.20
2019-02-16T09:17:09.267Z,9.10
2019-02-16T09:19:51.276Z,9.40
2019-02-16T09:22:21.514Z,9.00
2019-02-16T09:25:00.503Z,10.15
2019-02-16T09:27:30.637Z,9.30
2019-02-16T09:30:03.653Z,9.40
2019-02-16T09:32:49.940Z,10.23
2019-02-16T09:35:23.092Z,9.97
2019-02-16T09:37:53.167Z,10.40
2019-02-16T09:40:38.265Z,10.70
2019-02-16T09:43:08.333Z,10.65
2019-02-16T09:45:38.399Z,10.80
2019-02-16T09:48:08.445Z,10.55
2019-02-16T09:50:44.225Z,10.30
2019-02-16T09:53:16.837Z,11.00
2019-02-16T09:55:53.080Z,10.43
2019-02-16T09:58:25.656Z,10.70
2019-02-16T10:01:07.899Z,10.93
2019-02-16T10:03:43.947Z,12.30
2019-02-16T10:06:14.011Z,11.80
2019-02-16T10:08:44.151Z,11.48
2019-02-16T10:11:26.467Z,12.05
2019-02-16T10:14:05.339Z,11.95
2019-02-16T10:16:47.279Z,11.93
2019-02-16T10:19:29.570Z,12.15
2019-02-16T10:22:02.377Z,12.23
2019-02-16T10:24:49.134Z,12.35
2019-02-16T10:27:19.211Z,13.18
2019-02-16T10:29:50.256Z,12.63
2019-02-16T10:32:36.557Z,13.45
2019-02-16T10:35:07.356Z,12.50
2019-02-16T10:37:37.412Z,13.10
2019-02-16T10:40:16.917Z,13.37
2019-02-16T10:42:55.863Z,12.90
2019-02-16T10:45:29.248Z,13.00
2019-02-16T10:47:59.356Z,13.80
2019-02-16T10:50:32.367Z,13.50
2019-02-16T10:53:02.440Z,13.95
2019-02-16T10:55:50.815Z,13.78
2019-02-16T10:58:30.871Z,14.28
2019-02-16T11:01:00.928Z,14.20
2019-02-16T11:03:30.989Z,14.87
2019-02-16T11:06:04.047Z,14.38
2019-02-16T11:08:37.189Z,14.20
2019-02-16T11:11:07.239Z,14.47
2019-02-16T11:13:37.396Z,14.43
2019-02-16T11:16:13.308Z,14.40
2019-02-16T11:18:52.207Z,15.68
2019-02-16T11:21:31.454Z,15.58
2019-02-16T11:24:04.459Z,16.65
2019-02-16T11:26:49.491Z,15.25
2019-02-16T11:29:28.456Z,15.40
2019-02-16T11:31:58.506Z,15.20
2019-02-16T11:34:34.557Z,15.58
2019-02-16T11:37:07.610Z,16.52
2019-02-16T11:39:40.448Z,16.30
2019-02-16T11:42:19.676Z,16.23
2019-02-16T11:44:52.444Z,16.75
2019-02-16T11:47:25.843Z,16.12
2019-02-16T11:50:02.125Z,16.60
2019-02-16T11:52:48.522Z,16.17
2019-02-16T11:55:18.637Z,16.23
2019-02-16T11:58:06.873Z,17.07
2019-02-16T12:00:37.243Z,17.20
2019-02-16T12:03:16.195Z,17.37
2019-02-16T12:05:51.755Z,17.07
2019-02-16T12:08:30.649Z,17.10
2019-02-16T12:11:01.688Z,16.97
2019-02-16T12:13:43.948Z,17.60
2019-02-16T12:16:30.412Z,17.42
2019-02-16T12:19:00.456Z,17.15
2019-02-16T12:21:42.796Z,16.90
2019-02-16T12:24:12.972Z,17.27
2019-02-16T12:26:43.028Z,17.15
2019-02-16T12:29:19.252Z,17.23
2019-02-16T12:32:04.512Z,17.45
2019-02-16T12:34:37.275Z,17.57
2019-02-16T12:37:07.394Z,17.35
2019-02-16T12:39:37.459Z,17.37
2019-02-16T12:42:07.548Z,17.60
2019-02-16T12:44:49.730Z,17.10
2019-02-16T12:47:22.508Z,17.95
2019-02-16T12:49:58.317Z,17.25
2019-02-16T12:52:31.512Z,16.82
2019-02-16T12:55:01.861Z,16.93
2019-02-16T12:57:47.043Z,18.57
2019-02-16T13:00:23.009Z,17.50
2019-02-16T13:02:53.051Z,18.17
2019-02-16T13:05:39.457Z,17.05
2019-02-16T13:08:15.577Z,17.45
2019-02-16T13:10:45.714Z,17.73
2019-02-16T13:13:15.767Z,17.15
2019-02-16T13:15:57.584Z,17.50
2019-02-16T13:18:27.673Z,17.05
2019-02-16T13:20:57.771Z,16.60
2019-02-16T13:23:28.745Z,16.87
2019-02-16T13:26:15.059Z,17.23
2019-02-16T13:28:45.127Z,16.20
2019-02-16T13:31:18.111Z,16.67
2019-02-16T13:33:51.125Z,17.45
2019-02-16T13:36:23.860Z,17.00
2019-02-16T13:38:53.916Z,17.60
2019-02-16T13:41:39.024Z,16.97
2019-02-16T13:44:09.093Z,16.40
2019-02-16T13:46:44.944Z,17.77
2019-02-16T13:49:15.025Z,17.40
2019-02-16T13:51:47.735Z,17.80
2019-02-16T13:54:17.823Z,16.67
2019-02-16T13:56:50.885Z,16.70
2019-02-16T13:59:20.908Z,17.07
2019-02-16T14:02:00.032Z,16.60
2019-02-16T14:04:46.508Z,17.23
2019-02-16T14:07:22.600Z,17.23
2019-02-16T14:09:52.674Z,17.37
2019-02-16T14:12:34.655Z,18.15
2019-02-16T14:15:10.738Z,17.10
2019-02-16T14:17:40.846Z,18.20
2019-02-16T14:20:09.342Z,17.70
2019-02-16T14:22:37.796Z,17.32
2019-02-16T14:25:08.372Z,17.20
2019-02-16T14:27:36.775Z,16.73
2019-02-16T14:30:08.892Z,17.55
2019-02-16T14:32:37.288Z,17.23
2019-02-16T14:35:07.471Z,17.75
2019-02-16T14:37:43.684Z,18.20
2019-02-16T14:40:12.647Z,17.42
2019-02-16T14:42:41.060Z,17.90
2019-02-16T14:45:12.272Z,17.70
2019-02-16T14:47:40.704Z,19.90
2019-02-16T14:50:10.268Z,18.92
2019-02-16T14:52:38.719Z,18.17
2019-02-16T14:55:10.396Z,18.10
2019-02-16T14:57:38.962Z,18.42
2019-02-16T15:00:12.407Z,17.80
2019-02-16T15:02:40.813Z,19.20
2019-02-16T15:05:09.863Z,18.53
2019-02-16T15:07:38.287Z,18.15
2019-02-16T15:10:14.030Z,17.87
2019-02-16T15:12:42.439Z,18.90
2019-02-16T15:15:11.716Z,18.10
2019-02-16T15:17:40.143Z,18.40
2019-02-16T15:20:14.089Z,19.57
2019-02-16T15:22:42.534Z,19.25
2019-02-16T15:25:11.987Z,19.90
2019-02-16T15:27:40.568Z,18.52
2019-02-16T15:30:14.615Z,19.70
2019-02-16T15:32:43.153Z,19.60
2019-02-16T15:35:11.952Z,20.12
2019-02-16T15:37:40.375Z,20.72
2019-02-16T15:40:10.403Z,20.57
2019-02-16T15:42:38.808Z,20.10
2019-02-16T15:45:12.395Z,19.67
2019-02-16T15:47:40.825Z,19.23
2019-02-16T15:50:15.184Z,21.07
2019-02-16T15:52:43.610Z,19.52
2019-02-16T15:55:12.680Z,20.10
2019-02-16T15:57:45.315Z,19.27
2019-02-16T16:00:17.540Z,19.40
2019-02-16T16:02:46.683Z,19.67
2019-02-16T16:05:15.185Z,20.65
2019-02-16T16:07:45.229Z,22.10
2019-02-16T16:10:21.032Z,21.40
2019-02-16T16:12:51.083Z,20.10
2019-02-16T16:15:23.919Z,21.20
2019-02-16T16:18:02.875Z,21.30
2019-02-16T16:20:32.944Z,21.73
2019-02-16T16:23:02.980Z,21.10
2019-02-16T16:25:49.303Z,21.67
2019-02-16T16:28:22.412Z,23.22
2019-02-16T16:30:52.523Z,23.73
2019-02-16T16:33:37.572Z,24.25
2019-02-16T16:36:13.380Z,21.77
2019-02-16T16:38:49.475Z,22.43
2019-02-16T16:41:31.565Z,22.20
2019-02-16T16:44:04.626Z,20.90
2019-02-16T16:46:43.772Z,20.55
2019-02-16T16:49:16.820Z,20.45
2019-02-16T16:51:53.064Z,22.13
2019-02-16T16:54:24.171Z,22.70
2019-02-16T16:56:57.465Z,23.60
2019-02-16T16:59:30.433Z,24.12
2019-02-16T17:02:12.412Z,23.70
2019-02-16T17:04:42.483Z,23.22
2019-02-16T17:07:12.557Z,22.73
2019-02-16T17:09:59.218Z,24.70
2019-02-16T17:12:35.356Z,23.32
2019-02-16T17:15:05.515Z,23.42
2019-02-16T17:17:44.720Z,24.70
2019-02-16T17:20:14.818Z,22.98
2019-02-16T17:23:03.542Z,23.73
2019-02-16T17:25:45.875Z,27.48
2019-02-16T17:28:16.936Z,26.05
2019-02-16T17:30:46.977Z,24.70
2019-02-16T17:33:19.720Z,24.63
2019-02-16T17:35:49.788Z,24.70
2019-02-16T17:38:26.022Z,24.27
2019-02-16T17:41:11.384Z,23.55
2019-02-16T17:43:56.383Z,22.40
2019-02-16T17:46:35.462Z,22.40
2019-02-16T17:49:07.982Z,21.00
2019-02-16T17:51:47.328Z,20.90
2019-02-16T17:54:17.408Z,23.50
2019-02-16T17:56:59.479Z,22.13
2019-02-16T17:59:29.543Z,21.93
2019-02-16T18:02:14.883Z,22.80
2019-02-16T18:04:50.680Z,22.35
2019-02-16T18:07:38.877Z,22.62
2019-02-16T18:10:09.624Z,22.32
2019-02-16T18:12:56.216Z,23.02
2019-02-16T18:15:29.627Z,22.65
2019-02-16T18:17:59.676Z,22.37
2019-02-16T18:20:29.757Z,22.25
2019-02-16T18:23:00.101Z,25.13
2019-02-16T18:25:33.053Z,22.50
2019-02-16T18:28:08.930Z,23.50
2019-02-16T18:30:38.979Z,23.55
2019-02-16T18:33:27.450Z,24.60
2019-02-16T18:36:00.252Z,23.85
2019-02-16T18:38:46.655Z,23.47
2019-02-16T18:41:28.856Z,22.25
2019-02-16T18:43:59.949Z,23.43
2019-02-16T18:46:32.844Z,23.80
2019-02-16T18:49:02.936Z,22.85
2019-02-16T18:51:33.008Z,23.98
2019-02-16T18:54:03.927Z,23.18
2019-02-16T18:56:42.702Z,21.45
2019-02-16T18:59:21.572Z,22.90
2019-02-16T19:02:03.559Z,24.05
2019-02-16T19:04:33.622Z,24.72
2019-02-16T19:07:06.356Z,23.77
2019-02-16T19:09:42.156Z,22.98
2019-02-16T19:15:04.327Z,24.25
2019-02-16T19:17:37.148Z,23.80
2019-02-16T19:20:15.764Z,24.72
2019-02-16T19:22:48.876Z,24.82
2019-02-16T19:25:37.215Z,24.20
2019-02-16T19:28:22.520Z,25.02
2019-02-16T19:30:54.510Z,24.32
2019-02-16T19:33:30.737Z,23.70
2019-02-16T19:36:03.484Z,24.67
2019-02-16T19:38:42.591Z,24.80
2019-02-16T19:41:15.317Z,24.07
2019-02-16T19:43:57.269Z,23.65
2019-02-16T19:46:30.052Z,23.27
2019-02-16T19:49:00.090Z,23.60
2019-02-16T19:51:48.247Z,23.35
2019-02-16T19:54:35.008Z,24.07
2019-02-16T19:57:08.056Z,23.83
2019-02-16T19:59:40.804Z,23.65
2019-02-16T20:02:16.950Z,24.45
2019-02-16T20:04:50.341Z,23.98
2019-02-16T20:07:29.539Z,25.48
2019-02-16T20:10:02.372Z,24.15
2019-02-16T20:12:49.336Z,26.12
2019-02-16T20:15:22.084Z,26.87
2019-02-16T20:17:55.109Z,24.87
2019-02-16T20:20:25.160Z,26.15
2019-02-16T20:23:13.700Z,25.60
2019-02-16T20:25:49.318Z,26.80
2019-02-16T20:28:28.450Z,24.73
2019-02-16T20:31:04.378Z,26.20
2019-02-16T20:33:51.200Z,26.45
2019-02-16T20:36:39.285Z,25.20
2019-02-16T20:39:25.924Z,25.70
2019-02-16T20:42:11.330Z,25.75
2019-02-16T20:44:43.922Z,25.70
2019-02-16T20:47:16.671Z,25.65
2019-02-16T20:50:03.302Z,26.45
2019-02-16T20:52:36.300Z,25.95
2019-02-16T20:55:12.640Z,26.10
2019-02-16T20:57:47.914Z,26.60
2019-02-16T21:00:19.803Z,26.48
2019-02-16T21:02:58.927Z,25.60
2019-02-16T21:05:34.718Z,28.52
2019-02-16T21:08:04.787Z,30.45
2019-02-16T21:10:34.828Z,30.95
2019-02-16T21:13:04.879Z,33.08
2019-02-16T21:15:37.722Z,32.50
2019-02-16T21:18:13.725Z,30.80
2019-02-16T21:20:58.917Z,30.88
2019-02-16T21:23:37.763Z,31.20
2019-02-16T21:26:19.839Z,30.20
2019-02-16T21:28:49.887Z,29.72
2019-02-16T21:31:25.680Z,29.32
2019-02-16T21:33:55.747Z,29.18
2019-02-16T21:36:31.519Z,27.80
2019-02-16T21:39:03.417Z,28.65
2019-02-16T21:41:42.315Z,26.50
2019-02-16T21:44:13.763Z,27.52
2019-02-16T21:46:47.030Z,25.55
2019-02-16T21:49:26.055Z,26.25
2019-02-16T21:51:56.086Z,27.67
2019-02-16T21:54:29.105Z,28.75
2019-02-16T21:56:59.151Z,28.87
2019-02-16T21:59:35.281Z,28.20
2019-02-16T22:02:08.043Z,29.57
2019-02-16T22:04:56.171Z,28.38
2019-02-16T22:07:28.957Z,28.38
2019-02-16T22:10:01.920Z,28.92
2019-02-16T22:12:31.972Z,27.57
2019-02-16T22:15:02.501Z,28.00
2019-02-16T22:17:30.567Z,27.70
2019-02-16T22:19:58.955Z,27.70
2019-02-16T22:22:27.372Z,27.67
2019-02-16T22:24:55.783Z,26.17
2019-02-16T22:27:24.184Z,26.57
2019-02-16T22:29:52.581Z,27.13
2019-02-16T22:32:21.009Z,26.55
2019-02-16T22:34:49.467Z,26.68
2019-02-16T22:37:17.894Z,26.42
2019-02-16T22:39:46.284Z,26.10
2019-02-16T22:42:14.692Z,25.70
2019-02-16T22:44:43.092Z,25.82
2019-02-16T22:47:11.538Z,25.20
2019-02-16T22:49:39.923Z,26.10
2019-02-16T22:52:08.357Z,26.93
2019-02-16T22:54:36.785Z,26.93
2019-02-16T22:57:05.185Z,25.25
2019-02-16T22:59:33.599Z,26.27
2019-02-16T23:02:02.000Z,26.50
2019-02-16T23:04:30.413Z,25.30
2019-02-16T23:06:58.815Z,25.60
2019-02-16T23:09:27.683Z,26.93
2019-02-16T23:11:56.104Z,27.62
2019-02-16T23:14:24.520Z,26.87
2019-02-16T23:16:52.965Z,25.17
2019-02-16T23:19:21.355Z,26.65
2019-02-16T23:21:49.764Z,26.62
2019-02-16T23:24:18.540Z,28.23
2019-02-16T23:26:46.944Z,26.87
2019-02-16T23:29:15.345Z,28.97
2019-02-16T23:31:43.757Z,28.00
2019-02-16T23:34:12.440Z,25.88
2019-02-16T23:36:40.844Z,26.87
2019-02-16T23:39:10.028Z,28.40
2019-02-16T23:41:38.431Z,28.35
2019-02-16T23:44:06.876Z,28.83
2019-02-16T23:46:35.291Z,28.83
2019-02-16T23:49:03.726Z,28.90
2019-02-16T23:51:32.109Z,29.60
2019-02-16T23:54:00.525Z,28.90
2019-02-16T23:56:28.945Z,27.58
2019-02-16T23:58:57.388Z,28.42
